sensor_id;sensor_type;location;lat;lon;timestamp;temperature;humidity
5560;DHT22;2803;47.916;8.074;2023-06-22T00:01:11;21.00;99.90
5560;DHT22;2803;47.916;8.074;2023-06-22T00:03:38;21.40;99.90
5560;DHT22;2803;47.916;8.074;2023-06-22T00:06:05;21.80;99.90
5560;DHT22;2803;47.916;8.074;2023-06-22T00:08:31;21.90;99.90
5560;DHT22;2803;47.916;8.074;2023-06-22T00:10:59;21.60;99.90
5560;DHT22;2803;47.916;8.074;2023-06-22T00:13:26;21.10;99.90
5560;DHT22;2803;47.916;8.074;2023-06-22T00:15:52;20.70;99.90
5560;DHT22;2803;47.916;8.074;2023-06-22T00:18:19;20.80;99.90
5560;DHT22;2803;47.916;8.074;2023-06-22T00:20:46;21.00;99.90
5560;DHT22;2803;47.916;8.074;2023-06-22T00:23:12;21.50;99.90
5560;DHT22;2803;47.916;8.074;2023-06-22T00:25:41;21.70;99.90
5560;DHT22;2803;47.916;8.074;2023-06-22T00:28:09;21.80;99.90
5560;DHT22;2803;47.916;8.074;2023-06-22T00:30:35;21.80;99.90
5560;DHT22;2803;47.916;8.074;2023-06-22T00:33:02;21.90;99.90
5560;DHT22;2803;47.916;8.074;2023-06-22T00:35:29;21.90;99.90
5560;DHT22;2803;47.916;8.074;2023-06-22T00:37:56;21.90;99.90
5560;DHT22;2803;47.916;8.074;2023-06-22T00:40:26;21.80;99.90
5560;DHT22;2803;47.916;8.074;2023-06-22T00:42:53;21.80;99.90
5560;DHT22;2803;47.916;8.074;2023-06-22T00:45:21;21.90;99.90
5560;DHT22;2803;47.916;8.074;2023-06-22T00:47:48;21.90;99.90
5560;DHT22;2803;47.916;8.074;2023-06-22T00:50:18;21.90;99.90
5560;DHT22;2803;47.916;8.074;2023-06-22T00:52:48;21.80;99.90
5560;DHT22;2803;47.916;8.074;2023-06-22T00:55:14;21.80;99.90
5560;DHT22;2803;47.916;8.074;2023-06-22T00:57:43;21.00;99.90
5560;DHT22;2803;47.916;8.074;2023-06-22T01:00:11;21.10;99.90
5560;DHT22;2803;47.916;8.074;2023-06-22T01:02:46;21.40;99.90
5560;DHT22;2803;47.916;8.074;2023-06-22T01:05:15;21.40;99.90
5560;DHT22;2803;47.916;8.074;2023-06-22T01:07:47;21.50;99.90
5560;DHT22;2803;47.916;8.074;2023-06-22T01:10:23;21.60;99.90
5560;DHT22;2803;47.916;8.074;2023-06-22T01:12:53;21.60;99.90
5560;DHT22;2803;47.916;8.074;2023-06-22T01:15:25;21.50;99.90
5560;DHT22;2803;47.916;8.074;2023-06-22T01:17:56;21.50;99.90
5560;DHT22;2803;47.916;8.074;2023-06-22T01:20:25;21.50;99.90
5560;DHT22;2803;47.916;8.074;2023-06-22T01:23:02;21.50;99.90
5560;DHT22;2803;47.916;8.074;2023-06-22T01:25:38;21.50;99.90
5560;DHT22;2803;47.916;8.074;2023-06-22T01:28:20;21.40;99.90
5560;DHT22;2803;47.916;8.074;2023-06-22T01:30:51;21.10;99.90
5560;DHT22;2803;47.916;8.074;2023-06-22T01:33:33;21.00;99.90
5560;DHT22;2803;47.916;8.074;2023-06-22T01:36:01;21.10;99.90
5560;DHT22;2803;47.916;8.074;2023-06-22T01:38:29;21.30;99.90
5560;DHT22;2803;47.916;8.074;2023-06-22T01:40:57;21.40;99.90
5560;DHT22;2803;47.916;8.074;2023-06-22T01:43:25;21.40;99.90
5560;DHT22;2803;47.916;8.074;2023-06-22T01:45:54;21.40;99.90
5560;DHT22;2803;47.916;8.074;2023-06-22T01:48:22;21.20;99.90
5560;DHT22;2803;47.916;8.074;2023-06-22T01:50:51;21.10;99.90
5560;DHT22;2803;47.916;8.074;2023-06-22T01:53:18;21.10;99.90
5560;DHT22;2803;47.916;8.074;2023-06-22T01:55:44;21.10;99.90
5560;DHT22;2803;47.916;8.074;2023-06-22T01:58:11;21.20;99.90
5560;DHT22;2803;47.916;8.074;2023-06-22T02:00:38;21.20;99.90
5560;DHT22;2803;47.916;8.074;2023-06-22T02:03:11;21.10;99.90
5560;DHT22;2803;47.916;8.074;2023-06-22T02:05:48;21.10;99.90
5560;DHT22;2803;47.916;8.074;2023-06-22T02:08:19;21.10;99.90
5560;DHT22;2803;47.916;8.074;2023-06-22T02:10:48;21.10;99.90
5560;DHT22;2803;47.916;8.074;2023-06-22T02:13:17;21.10;99.90
5560;DHT22;2803;47.916;8.074;2023-06-22T02:15:45;21.10;99.90
5560;DHT22;2803;47.916;8.074;2023-06-22T02:18:14;21.20;99.90
5560;DHT22;2803;47.916;8.074;2023-06-22T02:20:40;20.90;99.90
5560;DHT22;2803;47.916;8.074;2023-06-22T02:23:07;20.30;99.90
5560;DHT22;2803;47.916;8.074;2023-06-22T02:25:34;19.90;99.90
5560;DHT22;2803;47.916;8.074;2023-06-22T02:28:01;20.10;99.90
5560;DHT22;2803;47.916;8.074;2023-06-22T02:30:27;20.40;99.90
5560;DHT22;2803;47.916;8.074;2023-06-22T02:32:54;20.60;99.90
5560;DHT22;2803;47.916;8.074;2023-06-22T02:35:25;20.70;99.90
5560;DHT22;2803;47.916;8.074;2023-06-22T02:37:52;20.70;99.90
5560;DHT22;2803;47.916;8.074;2023-06-22T02:40:19;20.40;99.90
5560;DHT22;2803;47.916;8.074;2023-06-22T02:42:46;19.60;99.90
5560;DHT22;2803;47.916;8.074;2023-06-22T02:45:14;19.20;99.90
5560;DHT22;2803;47.916;8.074;2023-06-22T02:47:40;19.00;99.90
5560;DHT22;2803;47.916;8.074;2023-06-22T02:50:07;18.60;99.90
5560;DHT22;2803;47.916;8.074;2023-06-22T02:52:36;18.40;99.90
5560;DHT22;2803;47.916;8.074;2023-06-22T02:55:04;18.90;99.90
5560;DHT22;2803;47.916;8.074;2023-06-22T02:57:30;19.70;99.90
5560;DHT22;2803;47.916;8.074;2023-06-22T02:59:57;20.00;99.90
5560;DHT22;2803;47.916;8.074;2023-06-22T03:02:23;19.30;99.90
5560;DHT22;2803;47.916;8.074;2023-06-22T03:04:51;18.60;99.90
5560;DHT22;2803;47.916;8.074;2023-06-22T03:07:19;18.20;99.90
5560;DHT22;2803;47.916;8.074;2023-06-22T03:09:47;18.60;99.90
5560;DHT22;2803;47.916;8.074;2023-06-22T03:12:14;18.60;99.90
5560;DHT22;2803;47.916;8.074;2023-06-22T03:14:41;18.20;99.90
5560;DHT22;2803;47.916;8.074;2023-06-22T03:17:07;18.50;99.90
5560;DHT22;2803;47.916;8.074;2023-06-22T03:19:34;18.80;99.90
5560;DHT22;2803;47.916;8.074;2023-06-22T03:22:00;18.50;99.90
5560;DHT22;2803;47.916;8.074;2023-06-22T03:24:27;18.80;99.90
5560;DHT22;2803;47.916;8.074;2023-06-22T03:26:56;19.00;99.90
5560;DHT22;2803;47.916;8.074;2023-06-22T03:29:23;19.10;99.90
5560;DHT22;2803;47.916;8.074;2023-06-22T03:31:50;19.40;99.90
5560;DHT22;2803;47.916;8.074;2023-06-22T03:34:17;18.70;99.90
5560;DHT22;2803;47.916;8.074;2023-06-22T03:36:44;18.50;99.90
5560;DHT22;2803;47.916;8.074;2023-06-22T03:39:12;17.80;99.90
5560;DHT22;2803;47.916;8.074;2023-06-22T03:41:39;18.00;99.90
5560;DHT22;2803;47.916;8.074;2023-06-22T03:44:06;18.20;99.90
5560;DHT22;2803;47.916;8.074;2023-06-22T03:46:36;19.00;99.90
5560;DHT22;2803;47.916;8.074;2023-06-22T03:49:02;19.70;99.90
5560;DHT22;2803;47.916;8.074;2023-06-22T03:51:29;20.10;99.90
5560;DHT22;2803;47.916;8.074;2023-06-22T03:53:56;19.70;99.90
5560;DHT22;2803;47.916;8.074;2023-06-22T03:56:22;19.50;99.90
5560;DHT22;2803;47.916;8.074;2023-06-22T03:58:49;19.50;99.90
5560;DHT22;2803;47.916;8.074;2023-06-22T04:01:17;19.20;99.90
5560;DHT22;2803;47.916;8.074;2023-06-22T04:03:44;19.00;99.90
5560;DHT22;2803;47.916;8.074;2023-06-22T04:06:13;19.60;99.90
5560;DHT22;2803;47.916;8.074;2023-06-22T04:08:40;19.80;99.90
5560;DHT22;2803;47.916;8.074;2023-06-22T04:11:07;19.30;99.90
5560;DHT22;2803;47.916;8.074;2023-06-22T04:13:34;19.60;99.90
5560;DHT22;2803;47.916;8.074;2023-06-22T04:16:00;19.60;99.90
5560;DHT22;2803;47.916;8.074;2023-06-22T04:18:29;19.30;99.90
5560;DHT22;2803;47.916;8.074;2023-06-22T04:20:55;19.50;99.90
5560;DHT22;2803;47.916;8.074;2023-06-22T04:23:22;19.80;99.90
5560;DHT22;2803;47.916;8.074;2023-06-22T04:25:48;19.70;99.90
5560;DHT22;2803;47.916;8.074;2023-06-22T04:28:16;19.50;99.90
5560;DHT22;2803;47.916;8.074;2023-06-22T04:30:43;19.30;99.90
5560;DHT22;2803;47.916;8.074;2023-06-22T04:33:13;19.10;99.90
5560;DHT22;2803;47.916;8.074;2023-06-22T04:35:41;19.20;99.90
5560;DHT22;2803;47.916;8.074;2023-06-22T04:38:08;19.10;99.90
5560;DHT22;2803;47.916;8.074;2023-06-22T04:40:36;19.00;99.90
5560;DHT22;2803;47.916;8.074;2023-06-22T04:43:03;19.40;99.90
5560;DHT22;2803;47.916;8.074;2023-06-22T04:45:31;19.50;99.90
5560;DHT22;2803;47.916;8.074;2023-06-22T04:47:58;19.20;99.90
5560;DHT22;2803;47.916;8.074;2023-06-22T04:50:25;19.60;99.90
5560;DHT22;2803;47.916;8.074;2023-06-22T04:52:53;20.30;99.90
5560;DHT22;2803;47.916;8.074;2023-06-22T04:55:20;20.40;99.90
5560;DHT22;2803;47.916;8.074;2023-06-22T04:57:47;20.40;99.90
5560;DHT22;2803;47.916;8.074;2023-06-22T05:00:15;20.60;99.90
5560;DHT22;2803;47.916;8.074;2023-06-22T05:02:43;20.50;99.90
5560;DHT22;2803;47.916;8.074;2023-06-22T05:05:11;20.40;99.90
5560;DHT22;2803;47.916;8.074;2023-06-22T05:07:41;20.90;99.90
5560;DHT22;2803;47.916;8.074;2023-06-22T05:10:11;21.20;99.90
5560;DHT22;2803;47.916;8.074;2023-06-22T05:12:39;21.00;99.90
5560;DHT22;2803;47.916;8.074;2023-06-22T05:15:07;21.10;99.90
5560;DHT22;2803;47.916;8.074;2023-06-22T05:17:33;20.70;99.90
5560;DHT22;2803;47.916;8.074;2023-06-22T05:20:00;20.80;99.90
5560;DHT22;2803;47.916;8.074;2023-06-22T05:22:27;20.80;99.90
5560;DHT22;2803;47.916;8.074;2023-06-22T05:24:54;20.50;99.90
5560;DHT22;2803;47.916;8.074;2023-06-22T05:27:22;20.60;99.90
5560;DHT22;2803;47.916;8.074;2023-06-22T05:29:49;21.10;99.90
5560;DHT22;2803;47.916;8.074;2023-06-22T05:32:16;21.00;99.90
5560;DHT22;2803;47.916;8.074;2023-06-22T05:34:42;21.00;99.90
5560;DHT22;2803;47.916;8.074;2023-06-22T05:37:09;21.10;99.90
5560;DHT22;2803;47.916;8.074;2023-06-22T05:39:36;21.00;99.90
5560;DHT22;2803;47.916;8.074;2023-06-22T05:42:05;21.20;99.90
5560;DHT22;2803;47.916;8.074;2023-06-22T05:44:33;21.00;99.90
5560;DHT22;2803;47.916;8.074;2023-06-22T05:47:00;21.60;99.90
5560;DHT22;2803;47.916;8.074;2023-06-22T05:49:26;22.20;99.90
5560;DHT22;2803;47.916;8.074;2023-06-22T05:51:55;21.50;99.90
5560;DHT22;2803;47.916;8.074;2023-06-22T05:54:23;21.40;99.90
5560;DHT22;2803;47.916;8.074;2023-06-22T05:56:50;21.80;99.90
5560;DHT22;2803;47.916;8.074;2023-06-22T05:59:17;22.20;99.90
5560;DHT22;2803;47.916;8.074;2023-06-22T06:01:45;22.40;99.90
5560;DHT22;2803;47.916;8.074;2023-06-22T06:04:15;22.00;99.90
5560;DHT22;2803;47.916;8.074;2023-06-22T06:06:41;22.30;99.90
5560;DHT22;2803;47.916;8.074;2023-06-22T06:09:08;22.80;99.90
5560;DHT22;2803;47.916;8.074;2023-06-22T06:11:34;22.90;99.90
5560;DHT22;2803;47.916;8.074;2023-06-22T06:14:01;22.50;99.90
5560;DHT22;2803;47.916;8.074;2023-06-22T06:16:28;22.60;99.90
5560;DHT22;2803;47.916;8.074;2023-06-22T06:18:58;22.70;99.90
5560;DHT22;2803;47.916;8.074;2023-06-22T06:21:25;22.80;99.90
5560;DHT22;2803;47.916;8.074;2023-06-22T06:24:01;23.10;99.90
5560;DHT22;2803;47.916;8.074;2023-06-22T06:26:27;23.70;99.90
5560;DHT22;2803;47.916;8.074;2023-06-22T06:28:55;23.80;99.90
5560;DHT22;2803;47.916;8.074;2023-06-22T06:31:22;23.90;99.90
5560;DHT22;2803;47.916;8.074;2023-06-22T06:33:48;23.80;99.90
5560;DHT22;2803;47.916;8.074;2023-06-22T06:36:17;24.40;99.90
5560;DHT22;2803;47.916;8.074;2023-06-22T06:38:43;24.60;99.90
5560;DHT22;2803;47.916;8.074;2023-06-22T06:41:12;24.60;99.90
5560;DHT22;2803;47.916;8.074;2023-06-22T06:43:40;24.90;99.90
5560;DHT22;2803;47.916;8.074;2023-06-22T06:46:08;24.90;99.90
5560;DHT22;2803;47.916;8.074;2023-06-22T06:48:35;25.10;99.90
5560;DHT22;2803;47.916;8.074;2023-06-22T06:51:02;25.50;99.90
5560;DHT22;2803;47.916;8.074;2023-06-22T06:53:30;25.80;99.90
5560;DHT22;2803;47.916;8.074;2023-06-22T06:55:56;25.70;99.90
5560;DHT22;2803;47.916;8.074;2023-06-22T06:58:23;25.80;99.90
5560;DHT22;2803;47.916;8.074;2023-06-22T07:00:49;26.00;99.90
5560;DHT22;2803;47.916;8.074;2023-06-22T07:03:16;26.10;99.90
5560;DHT22;2803;47.916;8.074;2023-06-22T07:05:43;26.30;99.90
5560;DHT22;2803;47.916;8.074;2023-06-22T07:08:10;26.30;99.90
5560;DHT22;2803;47.916;8.074;2023-06-22T07:10:37;26.30;99.90
5560;DHT22;2803;47.916;8.074;2023-06-22T07:13:04;26.10;99.90
5560;DHT22;2803;47.916;8.074;2023-06-22T07:15:31;25.80;99.90
5560;DHT22;2803;47.916;8.074;2023-06-22T07:17:57;25.60;99.90
5560;DHT22;2803;47.916;8.074;2023-06-22T07:20:24;25.40;99.90
5560;DHT22;2803;47.916;8.074;2023-06-22T07:22:51;25.10;99.90
5560;DHT22;2803;47.916;8.074;2023-06-22T07:25:18;25.30;99.90
5560;DHT22;2803;47.916;8.074;2023-06-22T07:27:57;25.70;99.90
5560;DHT22;2803;47.916;8.074;2023-06-22T07:30:24;25.90;99.90
5560;DHT22;2803;47.916;8.074;2023-06-22T07:32:51;26.10;99.90
5560;DHT22;2803;47.916;8.074;2023-06-22T07:35:17;26.40;99.90
5560;DHT22;2803;47.916;8.074;2023-06-22T07:37:44;26.60;99.90
5560;DHT22;2803;47.916;8.074;2023-06-22T07:40:11;26.80;99.90
5560;DHT22;2803;47.916;8.074;2023-06-22T07:42:39;26.90;99.90
5560;DHT22;2803;47.916;8.074;2023-06-22T07:45:07;27.10;99.90
5560;DHT22;2803;47.916;8.074;2023-06-22T07:47:34;27.30;99.90
5560;DHT22;2803;47.916;8.074;2023-06-22T07:50:02;27.30;99.90
5560;DHT22;2803;47.916;8.074;2023-06-22T07:52:30;27.30;99.90
5560;DHT22;2803;47.916;8.074;2023-06-22T07:54:57;27.40;99.90
5560;DHT22;2803;47.916;8.074;2023-06-22T07:57:24;27.40;99.90
5560;DHT22;2803;47.916;8.074;2023-06-22T07:59:57;27.40;99.90
5560;DHT22;2803;47.916;8.074;2023-06-22T08:02:26;27.70;99.90
5560;DHT22;2803;47.916;8.074;2023-06-22T08:04:52;27.30;99.90
5560;DHT22;2803;47.916;8.074;2023-06-22T08:07:19;27.30;99.90
5560;DHT22;2803;47.916;8.074;2023-06-22T08:09:47;27.40;99.90
5560;DHT22;2803;47.916;8.074;2023-06-22T08:12:14;27.80;99.90
5560;DHT22;2803;47.916;8.074;2023-06-22T08:14:42;27.60;99.90
5560;DHT22;2803;47.916;8.074;2023-06-22T08:17:09;27.90;99.90
5560;DHT22;2803;47.916;8.074;2023-06-22T08:19:39;28.30;99.90
5560;DHT22;2803;47.916;8.074;2023-06-22T08:22:05;28.60;99.90
5560;DHT22;2803;47.916;8.074;2023-06-22T08:24:32;28.70;99.90
5560;DHT22;2803;47.916;8.074;2023-06-22T08:26:59;28.90;99.90
5560;DHT22;2803;47.916;8.074;2023-06-22T08:29:26;29.20;99.90
5560;DHT22;2803;47.916;8.074;2023-06-22T08:31:52;29.40;99.90
5560;DHT22;2803;47.916;8.074;2023-06-22T08:34:19;29.50;99.90
5560;DHT22;2803;47.916;8.074;2023-06-22T08:36:54;29.40;99.90
5560;DHT22;2803;47.916;8.074;2023-06-22T08:39:21;29.00;99.90
5560;DHT22;2803;47.916;8.074;2023-06-22T08:41:48;29.20;99.90
5560;DHT22;2803;47.916;8.074;2023-06-22T08:44:18;29.50;99.90
5560;DHT22;2803;47.916;8.074;2023-06-22T08:46:45;30.10;99.90
5560;DHT22;2803;47.916;8.074;2023-06-22T08:49:12;30.40;99.90
5560;DHT22;2803;47.916;8.074;2023-06-22T08:51:39;30.60;99.90
5560;DHT22;2803;47.916;8.074;2023-06-22T08:54:07;30.70;99.90
5560;DHT22;2803;47.916;8.074;2023-06-22T08:56:34;29.60;99.90
5560;DHT22;2803;47.916;8.074;2023-06-22T08:59:01;29.80;99.90
5560;DHT22;2803;47.916;8.074;2023-06-22T09:01:28;29.90;99.90
5560;DHT22;2803;47.916;8.074;2023-06-22T09:03:55;30.30;99.90
5560;DHT22;2803;47.916;8.074;2023-06-22T09:06:23;30.00;99.90
5560;DHT22;2803;47.916;8.074;2023-06-22T09:08:50;30.10;99.90
5560;DHT22;2803;47.916;8.074;2023-06-22T09:11:18;30.60;99.90
5560;DHT22;2803;47.916;8.074;2023-06-22T09:13:45;31.20;99.90
5560;DHT22;2803;47.916;8.074;2023-06-22T09:16:11;31.50;99.90
5560;DHT22;2803;47.916;8.074;2023-06-22T09:18:38;31.80;99.90
5560;DHT22;2803;47.916;8.074;2023-06-22T09:21:05;32.00;99.90
5560;DHT22;2803;47.916;8.074;2023-06-22T09:23:32;31.90;99.90
5560;DHT22;2803;47.916;8.074;2023-06-22T09:25:59;32.30;99.90
5560;DHT22;2803;47.916;8.074;2023-06-22T09:28:27;32.50;99.90
5560;DHT22;2803;47.916;8.074;2023-06-22T09:30:55;32.80;99.90
5560;DHT22;2803;47.916;8.074;2023-06-22T09:33:23;33.00;99.90
5560;DHT22;2803;47.916;8.074;2023-06-22T09:35:50;33.30;99.90
5560;DHT22;2803;47.916;8.074;2023-06-22T09:38:17;33.00;91.50
5560;DHT22;2803;47.916;8.074;2023-06-22T09:40:45;33.20;92.70
5560;DHT22;2803;47.916;8.074;2023-06-22T09:43:12;33.50;95.20
5560;DHT22;2803;47.916;8.074;2023-06-22T09:45:40;33.80;94.90
5560;DHT22;2803;47.916;8.074;2023-06-22T09:48:06;33.50;93.60
5560;DHT22;2803;47.916;8.074;2023-06-22T09:50:35;33.60;94.30
5560;DHT22;2803;47.916;8.074;2023-06-22T09:53:02;33.60;95.90
5560;DHT22;2803;47.916;8.074;2023-06-22T09:55:29;33.50;91.30
5560;DHT22;2803;47.916;8.074;2023-06-22T09:57:58;33.60;83.30
5560;DHT22;2803;47.916;8.074;2023-06-22T10:00:25;33.30;92.70
5560;DHT22;2803;47.916;8.074;2023-06-22T10:02:55;33.40;84.20
5560;DHT22;2803;47.916;8.074;2023-06-22T10:05:23;33.10;85.10
5560;DHT22;2803;47.916;8.074;2023-06-22T10:07:50;32.50;85.40
5560;DHT22;2803;47.916;8.074;2023-06-22T10:10:17;32.70;82.10
5560;DHT22;2803;47.916;8.074;2023-06-22T10:12:56;33.00;77.30
5560;DHT22;2803;47.916;8.074;2023-06-22T10:15:23;33.20;91.20
5560;DHT22;2803;47.916;8.074;2023-06-22T10:17:53;33.00;84.50
5560;DHT22;2803;47.916;8.074;2023-06-22T10:20:20;32.90;84.00
5560;DHT22;2803;47.916;8.074;2023-06-22T10:22:47;33.00;89.50
5560;DHT22;2803;47.916;8.074;2023-06-22T10:25:14;33.50;92.20
5560;DHT22;2803;47.916;8.074;2023-06-22T10:27:41;33.50;86.30
5560;DHT22;2803;47.916;8.074;2023-06-22T10:30:08;34.10;92.40
5560;DHT22;2803;47.916;8.074;2023-06-22T10:32:35;34.20;88.50
5560;DHT22;2803;47.916;8.074;2023-06-22T10:35:03;34.60;87.80
5560;DHT22;2803;47.916;8.074;2023-06-22T10:37:30;34.60;85.50
5560;DHT22;2803;47.916;8.074;2023-06-22T10:39:57;34.50;80.60
5560;DHT22;2803;47.916;8.074;2023-06-22T10:42:24;34.50;79.40
5560;DHT22;2803;47.916;8.074;2023-06-22T10:44:52;34.10;72.20
5560;DHT22;2803;47.916;8.074;2023-06-22T10:47:18;34.10;74.70
5560;DHT22;2803;47.916;8.074;2023-06-22T10:49:45;34.30;76.90
5560;DHT22;2803;47.916;8.074;2023-06-22T10:52:13;34.50;76.50
5560;DHT22;2803;47.916;8.074;2023-06-22T10:54:40;34.40;72.80
5560;DHT22;2803;47.916;8.074;2023-06-22T10:57:07;34.40;73.80
5560;DHT22;2803;47.916;8.074;2023-06-22T10:59:34;34.70;75.60
5560;DHT22;2803;47.916;8.074;2023-06-22T11:02:01;34.70;70.40
5560;DHT22;2803;47.916;8.074;2023-06-22T11:04:27;34.40;68.50
5560;DHT22;2803;47.916;8.074;2023-06-22T11:06:56;34.20;69.20
5560;DHT22;2803;47.916;8.074;2023-06-22T11:09:28;34.30;71.30
5560;DHT22;2803;47.916;8.074;2023-06-22T11:11:57;34.20;71.90
5560;DHT22;2803;47.916;8.074;2023-06-22T11:14:26;34.40;73.80
5560;DHT22;2803;47.916;8.074;2023-06-22T11:16:53;34.70;78.60
5560;DHT22;2803;47.916;8.074;2023-06-22T11:19:20;33.90;71.80
5560;DHT22;2803;47.916;8.074;2023-06-22T11:21:47;34.10;77.30
5560;DHT22;2803;47.916;8.074;2023-06-22T11:24:14;34.40;77.40
5560;DHT22;2803;47.916;8.074;2023-06-22T11:26:43;34.40;78.90
5560;DHT22;2803;47.916;8.074;2023-06-22T11:29:09;34.10;69.40
5560;DHT22;2803;47.916;8.074;2023-06-22T11:31:36;33.40;75.50
5560;DHT22;2803;47.916;8.074;2023-06-22T11:34:03;33.50;72.50
5560;DHT22;2803;47.916;8.074;2023-06-22T11:36:30;33.40;72.00
5560;DHT22;2803;47.916;8.074;2023-06-22T11:39:02;33.50;73.00
5560;DHT22;2803;47.916;8.074;2023-06-22T11:41:33;33.80;74.90
5560;DHT22;2803;47.916;8.074;2023-06-22T11:44:05;34.00;81.60
5560;DHT22;2803;47.916;8.074;2023-06-22T11:46:35;34.00;81.10
5560;DHT22;2803;47.916;8.074;2023-06-22T11:49:05;33.40;74.30
5560;DHT22;2803;47.916;8.074;2023-06-22T11:51:35;33.40;79.50
5560;DHT22;2803;47.916;8.074;2023-06-22T11:54:05;33.40;74.50
5560;DHT22;2803;47.916;8.074;2023-06-22T11:56:32;33.50;77.00
5560;DHT22;2803;47.916;8.074;2023-06-22T11:58:59;33.50;84.40
5560;DHT22;2803;47.916;8.074;2023-06-22T12:01:27;33.40;82.40
5560;DHT22;2803;47.916;8.074;2023-06-22T12:03:54;33.40;84.90
5560;DHT22;2803;47.916;8.074;2023-06-22T12:06:20;33.40;88.90
5560;DHT22;2803;47.916;8.074;2023-06-22T12:08:47;33.30;88.20
5560;DHT22;2803;47.916;8.074;2023-06-22T12:11:14;33.10;84.40
5560;DHT22;2803;47.916;8.074;2023-06-22T12:13:40;33.00;82.20
5560;DHT22;2803;47.916;8.074;2023-06-22T12:16:07;32.10;75.00
5560;DHT22;2803;47.916;8.074;2023-06-22T12:18:35;32.40;79.10
5560;DHT22;2803;47.916;8.074;2023-06-22T12:21:02;32.60;85.00
5560;DHT22;2803;47.916;8.074;2023-06-22T12:23:28;32.20;79.70
5560;DHT22;2803;47.916;8.074;2023-06-22T12:25:55;31.90;80.40
5560;DHT22;2803;47.916;8.074;2023-06-22T12:28:22;31.90;80.50
5560;DHT22;2803;47.916;8.074;2023-06-22T12:30:49;31.70;80.40
5560;DHT22;2803;47.916;8.074;2023-06-22T12:33:16;31.40;79.00
5560;DHT22;2803;47.916;8.074;2023-06-22T12:35:45;31.60;79.80
5560;DHT22;2803;47.916;8.074;2023-06-22T12:38:14;31.60;79.00
5560;DHT22;2803;47.916;8.074;2023-06-22T12:40:41;31.60;85.10
5560;DHT22;2803;47.916;8.074;2023-06-22T12:43:07;31.80;90.30
5560;DHT22;2803;47.916;8.074;2023-06-22T12:45:34;32.30;82.80
5560;DHT22;2803;47.916;8.074;2023-06-22T12:48:01;32.50;86.80
5560;DHT22;2803;47.916;8.074;2023-06-22T12:50:27;32.90;83.10
5560;DHT22;2803;47.916;8.074;2023-06-22T12:52:55;33.00;83.20
5560;DHT22;2803;47.916;8.074;2023-06-22T12:55:22;33.00;78.20
5560;DHT22;2803;47.916;8.074;2023-06-22T12:57:49;32.60;79.70
5560;DHT22;2803;47.916;8.074;2023-06-22T13:00:16;32.50;80.10
5560;DHT22;2803;47.916;8.074;2023-06-22T13:02:43;32.60;79.60
5560;DHT22;2803;47.916;8.074;2023-06-22T13:05:10;32.80;79.10
5560;DHT22;2803;47.916;8.074;2023-06-22T13:07:37;33.00;78.70
5560;DHT22;2803;47.916;8.074;2023-06-22T13:10:06;33.00;78.90
5560;DHT22;2803;47.916;8.074;2023-06-22T13:12:33;32.30;80.10
5560;DHT22;2803;47.916;8.074;2023-06-22T13:15:00;31.80;80.00
5560;DHT22;2803;47.916;8.074;2023-06-22T13:17:28;32.10;80.70
5560;DHT22;2803;47.916;8.074;2023-06-22T13:19:55;31.70;84.70
5560;DHT22;2803;47.916;8.074;2023-06-22T13:22:27;31.10;91.20
5560;DHT22;2803;47.916;8.074;2023-06-22T13:24:55;30.70;93.10
5560;DHT22;2803;47.916;8.074;2023-06-22T13:27:23;30.00;95.70
5560;DHT22;2803;47.916;8.074;2023-06-22T13:29:51;30.20;96.10
5560;DHT22;2803;47.916;8.074;2023-06-22T13:32:17;30.50;96.10
5560;DHT22;2803;47.916;8.074;2023-06-22T13:34:44;30.30;97.30
5560;DHT22;2803;47.916;8.074;2023-06-22T13:37:11;30.40;96.70
5560;DHT22;2803;47.916;8.074;2023-06-22T13:39:37;30.70;96.50
5560;DHT22;2803;47.916;8.074;2023-06-22T13:42:05;30.60;96.80
5560;DHT22;2803;47.916;8.074;2023-06-22T13:44:33;30.70;96.80
5560;DHT22;2803;47.916;8.074;2023-06-22T13:47:00;30.20;97.10
5560;DHT22;2803;47.916;8.074;2023-06-22T13:49:26;29.60;98.30
5560;DHT22;2803;47.916;8.074;2023-06-22T13:51:53;29.30;98.60
5560;DHT22;2803;47.916;8.074;2023-06-22T13:54:20;29.30;99.30
5560;DHT22;2803;47.916;8.074;2023-06-22T13:56:46;29.30;99.60
5560;DHT22;2803;47.916;8.074;2023-06-22T13:59:13;29.20;99.70
5560;DHT22;2803;47.916;8.074;2023-06-22T14:01:41;29.50;99.90
5560;DHT22;2803;47.916;8.074;2023-06-22T14:04:08;29.60;99.10
5560;DHT22;2803;47.916;8.074;2023-06-22T14:06:35;29.90;99.50
5560;DHT22;2803;47.916;8.074;2023-06-22T14:09:04;29.80;98.90
5560;DHT22;2803;47.916;8.074;2023-06-22T14:11:32;29.80;98.30
5560;DHT22;2803;47.916;8.074;2023-06-22T14:13:58;29.70;98.10
5560;DHT22;2803;47.916;8.074;2023-06-22T14:16:25;29.70;98.10
5560;DHT22;2803;47.916;8.074;2023-06-22T14:18:53;29.60;97.30
5560;DHT22;2803;47.916;8.074;2023-06-22T14:21:20;29.70;98.10
5560;DHT22;2803;47.916;8.074;2023-06-22T14:23:47;29.80;97.00
5560;DHT22;2803;47.916;8.074;2023-06-22T14:26:15;30.10;99.80
5560;DHT22;2803;47.916;8.074;2023-06-22T14:28:43;30.20;99.50
5560;DHT22;2803;47.916;8.074;2023-06-22T14:31:14;30.10;99.90
5560;DHT22;2803;47.916;8.074;2023-06-22T14:33:40;30.10;99.90
5560;DHT22;2803;47.916;8.074;2023-06-22T14:36:09;29.70;99.90
5560;DHT22;2803;47.916;8.074;2023-06-22T14:38:36;29.70;99.90
5560;DHT22;2803;47.916;8.074;2023-06-22T14:41:03;29.40;99.90
5560;DHT22;2803;47.916;8.074;2023-06-22T14:43:30;29.30;98.90
5560;DHT22;2803;47.916;8.074;2023-06-22T14:45:56;29.40;99.40
5560;DHT22;2803;47.916;8.074;2023-06-22T14:48:23;29.60;99.90
5560;DHT22;2803;47.916;8.074;2023-06-22T14:50:50;29.60;99.30
5560;DHT22;2803;47.916;8.074;2023-06-22T14:53:18;29.40;99.90
5560;DHT22;2803;47.916;8.074;2023-06-22T14:55:44;29.50;99.90
5560;DHT22;2803;47.916;8.074;2023-06-22T14:58:11;29.20;99.90
5560;DHT22;2803;47.916;8.074;2023-06-22T15:00:38;29.00;99.90
5560;DHT22;2803;47.916;8.074;2023-06-22T15:03:05;29.00;99.90
5560;DHT22;2803;47.916;8.074;2023-06-22T15:05:36;27.90;99.90
5560;DHT22;2803;47.916;8.074;2023-06-22T15:08:03;27.70;99.90
5560;DHT22;2803;47.916;8.074;2023-06-22T15:10:31;27.20;99.90
5560;DHT22;2803;47.916;8.074;2023-06-22T15:12:57;27.10;99.90
5560;DHT22;2803;47.916;8.074;2023-06-22T15:15:24;27.10;99.90
5560;DHT22;2803;47.916;8.074;2023-06-22T15:17:51;26.90;99.90
5560;DHT22;2803;47.916;8.074;2023-06-22T15:20:17;26.90;99.90
5560;DHT22;2803;47.916;8.074;2023-06-22T15:22:44;26.90;99.90
5560;DHT22;2803;47.916;8.074;2023-06-22T15:25:11;26.50;99.90
5560;DHT22;2803;47.916;8.074;2023-06-22T15:27:38;25.80;99.90
5560;DHT22;2803;47.916;8.074;2023-06-22T15:30:06;25.80;99.90
5560;DHT22;2803;47.916;8.074;2023-06-22T15:32:33;25.20;99.90
5560;DHT22;2803;47.916;8.074;2023-06-22T15:34:59;24.60;99.90
5560;DHT22;2803;47.916;8.074;2023-06-22T15:37:26;24.30;99.90
5560;DHT22;2803;47.916;8.074;2023-06-22T15:39:53;24.60;99.90
5560;DHT22;2803;47.916;8.074;2023-06-22T15:42:21;24.40;99.90
5560;DHT22;2803;47.916;8.074;2023-06-22T15:44:50;23.70;99.90
5560;DHT22;2803;47.916;8.074;2023-06-22T15:47:16;24.10;99.90
5560;DHT22;2803;47.916;8.074;2023-06-22T15:49:47;24.10;99.90
5560;DHT22;2803;47.916;8.074;2023-06-22T15:52:13;24.10;99.90
5560;DHT22;2803;47.916;8.074;2023-06-22T15:54:43;24.20;99.90
5560;DHT22;2803;47.916;8.074;2023-06-22T15:57:09;24.40;99.90
5560;DHT22;2803;47.916;8.074;2023-06-22T15:59:38;24.40;99.90
5560;DHT22;2803;47.916;8.074;2023-06-22T16:02:06;24.00;99.90
5560;DHT22;2803;47.916;8.074;2023-06-22T16:04:33;23.60;99.90